sensor_id;sensor_type;location;lat;lon;timestamp;P1;durP1;ratioP1;P2;durP2;ratioP2
13335;SDS011;6737;51.480;11.962;2023-11-21T00:00:21;4.50;;;2.20;;
13335;SDS011;6737;51.480;11.962;2023-11-21T00:02:47;6.57;;;2.45;;
13335;SDS011;6737;51.480;11.962;2023-11-21T00:05:13;5.35;;;2.33;;
13335;SDS011;6737;51.480;11.962;2023-11-21T00:07:40;4.60;;;2.50;;
13335;SDS011;6737;51.480;11.962;2023-11-21T00:10:07;5.18;;;2.28;;
13335;SDS011;6737;51.480;11.962;2023-11-21T00:12:33;5.97;;;2.45;;
13335;SDS011;6737;51.480;11.962;2023-11-21T00:15:00;6.57;;;2.70;;
13335;SDS011;6737;51.480;11.962;2023-11-21T00:17:27;4.85;;;2.40;;
13335;SDS011;6737;51.480;11.962;2023-11-21T00:19:52;3.92;;;2.30;;
13335;SDS011;6737;51.480;11.962;2023-11-21T00:22:18;5.07;;;2.20;;
13335;SDS011;6737;51.480;11.962;2023-11-21T00:24:45;5.28;;;2.30;;
13335;SDS011;6737;51.480;11.962;2023-11-21T00:27:13;4.85;;;2.33;;
13335;SDS011;6737;51.480;11.962;2023-11-21T00:29:39;3.42;;;2.20;;
13335;SDS011;6737;51.480;11.962;2023-11-21T00:32:05;3.93;;;2.50;;
13335;SDS011;6737;51.480;11.962;2023-11-21T00:34:32;4.00;;;2.37;;
13335;SDS011;6737;51.480;11.962;2023-11-21T00:36:58;4.53;;;2.43;;
13335;SDS011;6737;51.480;11.962;2023-11-21T00:39:23;6.57;;;2.40;;
13335;SDS011;6737;51.480;11.962;2023-11-21T00:41:51;4.55;;;2.60;;
13335;SDS011;6737;51.480;11.962;2023-11-21T00:44:18;5.43;;;2.55;;
13335;SDS011;6737;51.480;11.962;2023-11-21T00:46:43;5.93;;;3.10;;
13335;SDS011;6737;51.480;11.962;2023-11-21T00:49:09;4.63;;;2.50;;
13335;SDS011;6737;51.480;11.962;2023-11-21T00:51:35;4.93;;;2.83;;
13335;SDS011;6737;51.480;11.962;2023-11-21T00:54:01;6.07;;;2.97;;
13335;SDS011;6737;51.480;11.962;2023-11-21T00:56:27;4.15;;;2.70;;
13335;SDS011;6737;51.480;11.962;2023-11-21T00:58:54;4.80;;;2.60;;
13335;SDS011;6737;51.480;11.962;2023-11-21T01:01:20;4.75;;;2.70;;
13335;SDS011;6737;51.480;11.962;2023-11-21T01:03:48;5.43;;;3.00;;
13335;SDS011;6737;51.480;11.962;2023-11-21T01:06:17;5.72;;;2.80;;
13335;SDS011;6737;51.480;11.962;2023-11-21T01:08:43;6.47;;;3.00;;
13335;SDS011;6737;51.480;11.962;2023-11-21T01:11:09;5.28;;;2.67;;
13335;SDS011;6737;51.480;11.962;2023-11-21T01:13:40;5.88;;;2.55;;
13335;SDS011;6737;51.480;11.962;2023-11-21T01:16:07;5.75;;;2.63;;
13335;SDS011;6737;51.480;11.962;2023-11-21T01:18:33;6.37;;;2.80;;
13335;SDS011;6737;51.480;11.962;2023-11-21T01:21:00;3.67;;;2.47;;
13335;SDS011;6737;51.480;11.962;2023-11-21T01:23:26;5.13;;;2.90;;
13335;SDS011;6737;51.480;11.962;2023-11-21T01:25:52;4.63;;;2.70;;
13335;SDS011;6737;51.480;11.962;2023-11-21T01:28:18;6.82;;;2.80;;
13335;SDS011;6737;51.480;11.962;2023-11-21T01:30:45;6.10;;;2.67;;
13335;SDS011;6737;51.480;11.962;2023-11-21T01:33:11;6.53;;;2.80;;
13335;SDS011;6737;51.480;11.962;2023-11-21T01:35:37;5.50;;;2.65;;
13335;SDS011;6737;51.480;11.962;2023-11-21T01:38:02;5.45;;;2.70;;
13335;SDS011;6737;51.480;11.962;2023-11-21T01:40:29;4.93;;;2.80;;
13335;SDS011;6737;51.480;11.962;2023-11-21T01:42:55;5.50;;;2.70;;
13335;SDS011;6737;51.480;11.962;2023-11-21T01:45:22;7.00;;;2.85;;
13335;SDS011;6737;51.480;11.962;2023-11-21T01:47:50;3.97;;;2.63;;
13335;SDS011;6737;51.480;11.962;2023-11-21T01:50:16;5.65;;;2.88;;
13335;SDS011;6737;51.480;11.962;2023-11-21T01:52:43;5.28;;;2.80;;
13335;SDS011;6737;51.480;11.962;2023-11-21T01:55:14;4.90;;;3.13;;
13335;SDS011;6737;51.480;11.962;2023-11-21T01:57:45;7.72;;;2.95;;
13335;SDS011;6737;51.480;11.962;2023-11-21T02:00:11;4.72;;;2.75;;
13335;SDS011;6737;51.480;11.962;2023-11-21T02:02:44;5.50;;;2.92;;
13335;SDS011;6737;51.480;11.962;2023-11-21T02:05:19;5.53;;;2.88;;
13335;SDS011;6737;51.480;11.962;2023-11-21T02:07:46;3.85;;;2.80;;
13335;SDS011;6737;51.480;11.962;2023-11-21T02:10:17;6.07;;;3.10;;
13335;SDS011;6737;51.480;11.962;2023-11-21T02:12:48;6.18;;;2.80;;
13335;SDS011;6737;51.480;11.962;2023-11-21T02:15:17;6.23;;;2.90;;
13335;SDS011;6737;51.480;11.962;2023-11-21T02:17:48;6.40;;;2.70;;
13335;SDS011;6737;51.480;11.962;2023-11-21T02:20:19;6.13;;;3.08;;
13335;SDS011;6737;51.480;11.962;2023-11-21T02:22:50;5.60;;;3.03;;
13335;SDS011;6737;51.480;11.962;2023-11-21T02:25:23;5.90;;;3.20;;
13335;SDS011;6737;51.480;11.962;2023-11-21T02:27:50;5.70;;;2.85;;
13335;SDS011;6737;51.480;11.962;2023-11-21T02:30:16;5.53;;;3.07;;
13335;SDS011;6737;51.480;11.962;2023-11-21T02:32:42;5.30;;;3.20;;
13335;SDS011;6737;51.480;11.962;2023-11-21T02:35:08;6.80;;;2.92;;
13335;SDS011;6737;51.480;11.962;2023-11-21T02:37:34;6.22;;;3.15;;
13335;SDS011;6737;51.480;11.962;2023-11-21T02:40:00;6.03;;;3.03;;
13335;SDS011;6737;51.480;11.962;2023-11-21T02:42:31;5.32;;;3.28;;
13335;SDS011;6737;51.480;11.962;2023-11-21T02:44:57;5.13;;;3.20;;
13335;SDS011;6737;51.480;11.962;2023-11-21T02:47:23;7.35;;;3.30;;
13335;SDS011;6737;51.480;11.962;2023-11-21T02:49:49;6.70;;;3.08;;
13335;SDS011;6737;51.480;11.962;2023-11-21T02:52:17;7.32;;;3.33;;
13335;SDS011;6737;51.480;11.962;2023-11-21T02:54:44;5.97;;;3.40;;
13335;SDS011;6737;51.480;11.962;2023-11-21T02:57:10;6.68;;;3.20;;
13335;SDS011;6737;51.480;11.962;2023-11-21T02:59:35;6.70;;;3.50;;
13335;SDS011;6737;51.480;11.962;2023-11-21T03:02:01;7.33;;;3.40;;
13335;SDS011;6737;51.480;11.962;2023-11-21T03:04:27;6.70;;;3.20;;
13335;SDS011;6737;51.480;11.962;2023-11-21T03:06:53;7.78;;;3.20;;
13335;SDS011;6737;51.480;11.962;2023-11-21T03:09:18;6.20;;;3.23;;
13335;SDS011;6737;51.480;11.962;2023-11-21T03:11:45;6.60;;;3.40;;
13335;SDS011;6737;51.480;11.962;2023-11-21T03:14:11;6.75;;;3.30;;
13335;SDS011;6737;51.480;11.962;2023-11-21T03:16:36;8.20;;;3.33;;
13335;SDS011;6737;51.480;11.962;2023-11-21T03:19:04;5.18;;;3.40;;
13335;SDS011;6737;51.480;11.962;2023-11-21T03:21:30;8.00;;;3.37;;
13335;SDS011;6737;51.480;11.962;2023-11-21T03:23:56;6.13;;;3.50;;
13335;SDS011;6737;51.480;11.962;2023-11-21T03:26:21;5.50;;;3.70;;
13335;SDS011;6737;51.480;11.962;2023-11-21T03:28:47;6.22;;;3.55;;
13335;SDS011;6737;51.480;11.962;2023-11-21T03:31:13;8.27;;;3.83;;
13335;SDS011;6737;51.480;11.962;2023-11-21T03:33:39;6.97;;;3.63;;
13335;SDS011;6737;51.480;11.962;2023-11-21T03:36:04;6.82;;;3.70;;
13335;SDS011;6737;51.480;11.962;2023-11-21T03:38:32;6.20;;;3.83;;
13335;SDS011;6737;51.480;11.962;2023-11-21T03:40:58;5.95;;;3.63;;
13335;SDS011;6737;51.480;11.962;2023-11-21T03:43:24;8.47;;;4.30;;
13335;SDS011;6737;51.480;11.962;2023-11-21T03:45:50;7.13;;;4.10;;
13335;SDS011;6737;51.480;11.962;2023-11-21T03:48:15;7.63;;;4.03;;
13335;SDS011;6737;51.480;11.962;2023-11-21T03:50:41;8.07;;;4.35;;
13335;SDS011;6737;51.480;11.962;2023-11-21T03:53:07;6.60;;;4.40;;
13335;SDS011;6737;51.480;11.962;2023-11-21T03:55:33;8.95;;;4.22;;
13335;SDS011;6737;51.480;11.962;2023-11-21T03:57:58;10.95;;;4.63;;
13335;SDS011;6737;51.480;11.962;2023-11-21T04:00:25;7.50;;;4.30;;
13335;SDS011;6737;51.480;11.962;2023-11-21T04:02:53;8.50;;;4.15;;
13335;SDS011;6737;51.480;11.962;2023-11-21T04:05:20;11.85;;;4.40;;
13335;SDS011;6737;51.480;11.962;2023-11-21T04:07:49;10.73;;;4.35;;
13335;SDS011;6737;51.480;11.962;2023-11-21T04:10:16;9.50;;;4.00;;
13335;SDS011;6737;51.480;11.962;2023-11-21T04:12:42;8.38;;;3.95;;
13335;SDS011;6737;51.480;11.962;2023-11-21T04:15:08;6.72;;;4.10;;
13335;SDS011;6737;51.480;11.962;2023-11-21T04:17:34;8.13;;;4.10;;
13335;SDS011;6737;51.480;11.962;2023-11-21T04:20:02;8.63;;;4.35;;
13335;SDS011;6737;51.480;11.962;2023-11-21T04:22:33;8.43;;;3.75;;
13335;SDS011;6737;51.480;11.962;2023-11-21T04:25:01;7.05;;;4.18;;
13335;SDS011;6737;51.480;11.962;2023-11-21T04:27:27;6.07;;;3.80;;
13335;SDS011;6737;51.480;11.962;2023-11-21T04:29:53;9.83;;;4.50;;
13335;SDS011;6737;51.480;11.962;2023-11-21T04:32:19;6.73;;;4.30;;
13335;SDS011;6737;51.480;11.962;2023-11-21T04:34:44;9.82;;;4.15;;
13335;SDS011;6737;51.480;11.962;2023-11-21T04:37:10;7.70;;;4.30;;
13335;SDS011;6737;51.480;11.962;2023-11-21T04:39:36;8.90;;;4.65;;
13335;SDS011;6737;51.480;11.962;2023-11-21T04:42:02;7.07;;;4.60;;
13335;SDS011;6737;51.480;11.962;2023-11-21T04:44:28;10.70;;;5.22;;
13335;SDS011;6737;51.480;11.962;2023-11-21T04:46:54;8.20;;;4.67;;
13335;SDS011;6737;51.480;11.962;2023-11-21T04:49:21;10.38;;;5.07;;
13335;SDS011;6737;51.480;11.962;2023-11-21T04:51:46;12.88;;;5.72;;
13335;SDS011;6737;51.480;11.962;2023-11-21T04:54:12;9.73;;;5.22;;
13335;SDS011;6737;51.480;11.962;2023-11-21T04:56:38;10.90;;;5.57;;
13335;SDS011;6737;51.480;11.962;2023-11-21T04:59:04;8.95;;;5.13;;
13335;SDS011;6737;51.480;11.962;2023-11-21T05:01:29;8.30;;;5.00;;
13335;SDS011;6737;51.480;11.962;2023-11-21T05:03:55;10.00;;;5.50;;
13335;SDS011;6737;51.480;11.962;2023-11-21T05:06:22;11.60;;;5.30;;
13335;SDS011;6737;51.480;11.962;2023-11-21T05:08:49;12.10;;;6.55;;
13335;SDS011;6737;51.480;11.962;2023-11-21T05:11:24;9.48;;;5.45;;
13335;SDS011;6737;51.480;11.962;2023-11-21T05:13:51;12.18;;;6.30;;
13335;SDS011;6737;51.480;11.962;2023-11-21T05:16:16;11.73;;;6.10;;
13335;SDS011;6737;51.480;11.962;2023-11-21T05:18:42;10.30;;;6.03;;
13335;SDS011;6737;51.480;11.962;2023-11-21T05:21:08;10.63;;;6.23;;
13335;SDS011;6737;51.480;11.962;2023-11-21T05:23:34;11.90;;;6.22;;
13335;SDS011;6737;51.480;11.962;2023-11-21T05:26:00;12.57;;;7.10;;
13335;SDS011;6737;51.480;11.962;2023-11-21T05:28:26;13.07;;;7.17;;
13335;SDS011;6737;51.480;11.962;2023-11-21T05:30:52;12.30;;;7.32;;
13335;SDS011;6737;51.480;11.962;2023-11-21T05:33:18;11.00;;;6.88;;
13335;SDS011;6737;51.480;11.962;2023-11-21T05:35:44;12.52;;;6.97;;
13335;SDS011;6737;51.480;11.962;2023-11-21T05:38:10;12.52;;;7.38;;
13335;SDS011;6737;51.480;11.962;2023-11-21T05:40:36;12.73;;;7.72;;
13335;SDS011;6737;51.480;11.962;2023-11-21T05:43:02;14.27;;;7.37;;
13335;SDS011;6737;51.480;11.962;2023-11-21T05:45:30;12.60;;;7.50;;
13335;SDS011;6737;51.480;11.962;2023-11-21T05:47:57;15.23;;;7.90;;
13335;SDS011;6737;51.480;11.962;2023-11-21T05:50:23;14.77;;;8.27;;
13335;SDS011;6737;51.480;11.962;2023-11-21T05:52:49;13.38;;;8.00;;
13335;SDS011;6737;51.480;11.962;2023-11-21T05:55:15;16.92;;;8.40;;
13335;SDS011;6737;51.480;11.962;2023-11-21T05:57:42;15.05;;;8.10;;
13335;SDS011;6737;51.480;11.962;2023-11-21T06:00:10;15.13;;;8.40;;
13335;SDS011;6737;51.480;11.962;2023-11-21T06:02:46;14.90;;;8.40;;
13335;SDS011;6737;51.480;11.962;2023-11-21T06:05:12;16.58;;;8.77;;
13335;SDS011;6737;51.480;11.962;2023-11-21T06:07:38;17.70;;;8.93;;
13335;SDS011;6737;51.480;11.962;2023-11-21T06:10:05;18.75;;;8.88;;
13335;SDS011;6737;51.480;11.962;2023-11-21T06:12:35;17.02;;;9.27;;
13335;SDS011;6737;51.480;11.962;2023-11-21T06:15:04;16.38;;;9.50;;
13335;SDS011;6737;51.480;11.962;2023-11-21T06:17:33;20.40;;;9.25;;
13335;SDS011;6737;51.480;11.962;2023-11-21T06:20:05;19.55;;;9.27;;
13335;SDS011;6737;51.480;11.962;2023-11-21T06:22:37;16.75;;;9.30;;
13335;SDS011;6737;51.480;11.962;2023-11-21T06:25:06;17.15;;;9.05;;
13335;SDS011;6737;51.480;11.962;2023-11-21T06:27:37;18.03;;;9.40;;
13335;SDS011;6737;51.480;11.962;2023-11-21T06:30:05;20.08;;;9.30;;
13335;SDS011;6737;51.480;11.962;2023-11-21T06:32:33;20.17;;;9.43;;
13335;SDS011;6737;51.480;11.962;2023-11-21T06:35:01;21.27;;;9.48;;
13335;SDS011;6737;51.480;11.962;2023-11-21T06:37:29;23.45;;;10.15;;
13335;SDS011;6737;51.480;11.962;2023-11-21T06:39:55;22.63;;;10.30;;
13335;SDS011;6737;51.480;11.962;2023-11-21T06:42:23;21.98;;;10.35;;
13335;SDS011;6737;51.480;11.962;2023-11-21T06:44:50;23.95;;;10.68;;
13335;SDS011;6737;51.480;11.962;2023-11-21T06:47:22;20.13;;;10.07;;
13335;SDS011;6737;51.480;11.962;2023-11-21T06:49:55;24.10;;;10.50;;
13335;SDS011;6737;51.480;11.962;2023-11-21T06:52:21;26.47;;;10.40;;
13335;SDS011;6737;51.480;11.962;2023-11-21T06:54:48;24.45;;;10.65;;
13335;SDS011;6737;51.480;11.962;2023-11-21T06:57:14;26.13;;;11.05;;
13335;SDS011;6737;51.480;11.962;2023-11-21T06:59:40;26.88;;;11.50;;
13335;SDS011;6737;51.480;11.962;2023-11-21T07:02:06;26.10;;;11.18;;
13335;SDS011;6737;51.480;11.962;2023-11-21T07:04:33;23.42;;;11.10;;
13335;SDS011;6737;51.480;11.962;2023-11-21T07:06:59;25.45;;;11.40;;
13335;SDS011;6737;51.480;11.962;2023-11-21T07:09:25;30.30;;;11.70;;
13335;SDS011;6737;51.480;11.962;2023-11-21T07:11:51;27.33;;;11.45;;
13335;SDS011;6737;51.480;11.962;2023-11-21T07:14:18;29.70;;;11.80;;
13335;SDS011;6737;51.480;11.962;2023-11-21T07:16:45;27.08;;;11.25;;
13335;SDS011;6737;51.480;11.962;2023-11-21T07:19:12;27.30;;;11.83;;
13335;SDS011;6737;51.480;11.962;2023-11-21T07:21:38;31.58;;;13.88;;
13335;SDS011;6737;51.480;11.962;2023-11-21T07:24:05;34.75;;;16.25;;
13335;SDS011;6737;51.480;11.962;2023-11-21T07:26:32;35.63;;;15.60;;
13335;SDS011;6737;51.480;11.962;2023-11-21T07:28:59;39.92;;;16.85;;
13335;SDS011;6737;51.480;11.962;2023-11-21T07:31:26;37.03;;;16.02;;
13335;SDS011;6737;51.480;11.962;2023-11-21T07:33:52;31.77;;;15.52;;
13335;SDS011;6737;51.480;11.962;2023-11-21T07:36:21;30.38;;;14.85;;
13335;SDS011;6737;51.480;11.962;2023-11-21T07:38:47;22.92;;;12.85;;
13335;SDS011;6737;51.480;11.962;2023-11-21T07:41:13;25.95;;;13.20;;
13335;SDS011;6737;51.480;11.962;2023-11-21T07:43:41;24.50;;;12.10;;
13335;SDS011;6737;51.480;11.962;2023-11-21T07:46:07;16.70;;;8.52;;
13335;SDS011;6737;51.480;11.962;2023-11-21T07:48:34;16.10;;;7.97;;
13335;SDS011;6737;51.480;11.962;2023-11-21T07:51:01;12.32;;;7.50;;
13335;SDS011;6737;51.480;11.962;2023-11-21T07:53:30;10.43;;;6.47;;
13335;SDS011;6737;51.480;11.962;2023-11-21T07:55:56;11.70;;;6.50;;
13335;SDS011;6737;51.480;11.962;2023-11-21T07:58:23;9.13;;;6.55;;
13335;SDS011;6737;51.480;11.962;2023-11-21T08:00:49;9.47;;;6.37;;
13335;SDS011;6737;51.480;11.962;2023-11-21T08:03:15;11.05;;;6.00;;
13335;SDS011;6737;51.480;11.962;2023-11-21T08:05:42;8.82;;;6.10;;
13335;SDS011;6737;51.480;11.962;2023-11-21T08:08:08;8.55;;;6.03;;
13335;SDS011;6737;51.480;11.962;2023-11-21T08:10:34;8.85;;;6.05;;
13335;SDS011;6737;51.480;11.962;2023-11-21T08:13:04;8.90;;;6.20;;
13335;SDS011;6737;51.480;11.962;2023-11-21T08:15:31;8.82;;;6.32;;
13335;SDS011;6737;51.480;11.962;2023-11-21T08:17:58;10.80;;;6.45;;
13335;SDS011;6737;51.480;11.962;2023-11-21T08:20:24;10.82;;;6.40;;
13335;SDS011;6737;51.480;11.962;2023-11-21T08:22:50;9.43;;;6.15;;
13335;SDS011;6737;51.480;11.962;2023-11-21T08:25:18;9.00;;;6.57;;
13335;SDS011;6737;51.480;11.962;2023-11-21T08:27:45;8.35;;;6.45;;
13335;SDS011;6737;51.480;11.962;2023-11-21T08:30:12;9.68;;;6.38;;
13335;SDS011;6737;51.480;11.962;2023-11-21T08:32:42;9.50;;;6.40;;
13335;SDS011;6737;51.480;11.962;2023-11-21T08:35:08;12.23;;;7.05;;
13335;SDS011;6737;51.480;11.962;2023-11-21T08:37:35;9.73;;;6.82;;
13335;SDS011;6737;51.480;11.962;2023-11-21T08:40:06;10.40;;;7.35;;
13335;SDS011;6737;51.480;11.962;2023-11-21T08:42:35;11.30;;;7.35;;
13335;SDS011;6737;51.480;11.962;2023-11-21T08:45:01;12.07;;;7.90;;
13335;SDS011;6737;51.480;11.962;2023-11-21T08:47:27;11.57;;;8.17;;
13335;SDS011;6737;51.480;11.962;2023-11-21T08:49:53;10.33;;;7.80;;
13335;SDS011;6737;51.480;11.962;2023-11-21T08:52:19;12.82;;;8.70;;
13335;SDS011;6737;51.480;11.962;2023-11-21T08:54:49;12.13;;;8.70;;
13335;SDS011;6737;51.480;11.962;2023-11-21T08:57:24;12.88;;;8.98;;
13335;SDS011;6737;51.480;11.962;2023-11-21T08:59:50;13.07;;;9.30;;
13335;SDS011;6737;51.480;11.962;2023-11-21T09:02:21;13.93;;;9.60;;
13335;SDS011;6737;51.480;11.962;2023-11-21T09:04:50;14.60;;;9.90;;
13335;SDS011;6737;51.480;11.962;2023-11-21T09:07:18;15.52;;;10.13;;
13335;SDS011;6737;51.480;11.962;2023-11-21T09:09:48;17.88;;;10.30;;
13335;SDS011;6737;51.480;11.962;2023-11-21T09:12:15;16.73;;;10.90;;
13335;SDS011;6737;51.480;11.962;2023-11-21T09:14:42;18.35;;;11.45;;
13335;SDS011;6737;51.480;11.962;2023-11-21T09:17:09;18.80;;;11.38;;
13335;SDS011;6737;51.480;11.962;2023-11-21T09:19:38;18.73;;;11.90;;
13335;SDS011;6737;51.480;11.962;2023-11-21T09:22:04;20.08;;;12.40;;
13335;SDS011;6737;51.480;11.962;2023-11-21T09:24:30;19.48;;;12.52;;
13335;SDS011;6737;51.480;11.962;2023-11-21T09:26:57;18.92;;;11.95;;
13335;SDS011;6737;51.480;11.962;2023-11-21T09:29:28;15.35;;;10.75;;
13335;SDS011;6737;51.480;11.962;2023-11-21T09:31:54;15.48;;;10.52;;
13335;SDS011;6737;51.480;11.962;2023-11-21T09:34:22;15.15;;;10.43;;
13335;SDS011;6737;51.480;11.962;2023-11-21T09:36:48;15.05;;;10.82;;
13335;SDS011;6737;51.480;11.962;2023-11-21T09:39:15;15.80;;;11.10;;
13335;SDS011;6737;51.480;11.962;2023-11-21T09:41:50;16.37;;;11.37;;
13335;SDS011;6737;51.480;11.962;2023-11-21T09:44:29;16.52;;;11.50;;
13335;SDS011;6737;51.480;11.962;2023-11-21T09:47:10;18.55;;;12.50;;
13335;SDS011;6737;51.480;11.962;2023-11-21T09:49:42;17.75;;;12.02;;
13335;SDS011;6737;51.480;11.962;2023-11-21T09:52:13;18.10;;;12.45;;
13335;SDS011;6737;51.480;11.962;2023-11-21T09:54:50;17.80;;;12.50;;
13335;SDS011;6737;51.480;11.962;2023-11-21T09:57:21;18.58;;;12.52;;
13335;SDS011;6737;51.480;11.962;2023-11-21T09:59:50;17.13;;;11.45;;
13335;SDS011;6737;51.480;11.962;2023-11-21T10:02:27;15.60;;;10.98;;
13335;SDS011;6737;51.480;11.962;2023-11-21T10:04:55;14.27;;;9.90;;
13335;SDS011;6737;51.480;11.962;2023-11-21T10:07:21;26.80;;;17.73;;
13335;SDS011;6737;51.480;11.962;2023-11-21T10:09:48;17.30;;;11.77;;
13335;SDS011;6737;51.480;11.962;2023-11-21T10:12:18;13.25;;;9.73;;
13335;SDS011;6737;51.480;11.962;2023-11-21T10:14:48;14.20;;;9.67;;
13335;SDS011;6737;51.480;11.962;2023-11-21T10:17:15;13.48;;;10.07;;
13335;SDS011;6737;51.480;11.962;2023-11-21T10:19:43;13.43;;;9.82;;
13335;SDS011;6737;51.480;11.962;2023-11-21T10:22:12;13.65;;;9.77;;
13335;SDS011;6737;51.480;11.962;2023-11-21T10:24:42;13.23;;;9.95;;
13335;SDS011;6737;51.480;11.962;2023-11-21T10:27:09;14.77;;;10.73;;
13335;SDS011;6737;51.480;11.962;2023-11-21T10:29:34;14.52;;;10.88;;
13335;SDS011;6737;51.480;11.962;2023-11-21T10:32:04;15.85;;;11.15;;
13335;SDS011;6737;51.480;11.962;2023-11-21T10:34:30;13.18;;;10.02;;
13335;SDS011;6737;51.480;11.962;2023-11-21T10:36:56;13.30;;;10.10;;
13335;SDS011;6737;51.480;11.962;2023-11-21T10:39:23;15.48;;;10.35;;
13335;SDS011;6737;51.480;11.962;2023-11-21T10:41:56;15.27;;;10.88;;
13335;SDS011;6737;51.480;11.962;2023-11-21T10:44:22;13.80;;;10.30;;
13335;SDS011;6737;51.480;11.962;2023-11-21T10:46:50;15.45;;;10.50;;
13335;SDS011;6737;51.480;11.962;2023-11-21T10:49:18;13.75;;;10.45;;
13335;SDS011;6737;51.480;11.962;2023-11-21T10:51:45;13.48;;;10.15;;
13335;SDS011;6737;51.480;11.962;2023-11-21T10:54:10;12.85;;;9.88;;
13335;SDS011;6737;51.480;11.962;2023-11-21T10:56:37;14.07;;;10.18;;
13335;SDS011;6737;51.480;11.962;2023-11-21T10:59:09;12.30;;;9.25;;
13335;SDS011;6737;51.480;11.962;2023-11-21T11:01:44;11.23;;;8.93;;
13335;SDS011;6737;51.480;11.962;2023-11-21T11:04:13;11.80;;;9.13;;
13335;SDS011;6737;51.480;11.962;2023-11-21T11:06:53;11.98;;;9.02;;
13335;SDS011;6737;51.480;11.962;2023-11-21T11:09:21;12.15;;;9.15;;
13335;SDS011;6737;51.480;11.962;2023-11-21T11:11:48;12.65;;;10.00;;
13335;SDS011;6737;51.480;11.962;2023-11-21T11:14:14;13.35;;;10.43;;
13335;SDS011;6737;51.480;11.962;2023-11-21T11:16:41;13.33;;;10.37;;
13335;SDS011;6737;51.480;11.962;2023-11-21T11:19:11;13.65;;;10.40;;
13335;SDS011;6737;51.480;11.962;2023-11-21T11:27:50;14.65;;;11.63;;
13335;SDS011;6737;51.480;11.962;2023-11-21T11:33:15;15.48;;;12.45;;
13335;SDS011;6737;51.480;11.962;2023-11-21T11:36:06;15.45;;;12.32;;
13335;SDS011;6737;51.480;11.962;2023-11-21T11:38:38;16.07;;;12.13;;
13335;SDS011;6737;51.480;11.962;2023-11-21T11:41:10;16.58;;;12.23;;
13335;SDS011;6737;51.480;11.962;2023-11-21T11:43:36;16.13;;;12.07;;
13335;SDS011;6737;51.480;11.962;2023-11-21T11:46:09;18.35;;;13.15;;
13335;SDS011;6737;51.480;11.962;2023-11-21T11:48:40;18.38;;;13.02;;
13335;SDS011;6737;51.480;11.962;2023-11-21T11:51:10;20.58;;;13.55;;
13335;SDS011;6737;51.480;11.962;2023-11-21T11:53:42;19.15;;;14.13;;
13335;SDS011;6737;51.480;11.962;2023-11-21T11:58:55;18.42;;;14.13;;
13335;SDS011;6737;51.480;11.962;2023-11-21T12:01:22;20.55;;;14.82;;
13335;SDS011;6737;51.480;11.962;2023-11-21T12:06:45;21.63;;;14.60;;
13335;SDS011;6737;51.480;11.962;2023-11-21T12:09:17;20.95;;;14.57;;
13335;SDS011;6737;51.480;11.962;2023-11-21T12:11:48;21.97;;;14.73;;
13335;SDS011;6737;51.480;11.962;2023-11-21T12:14:15;19.53;;;14.27;;
13335;SDS011;6737;51.480;11.962;2023-11-21T12:16:42;20.27;;;15.03;;
13335;SDS011;6737;51.480;11.962;2023-11-21T12:19:08;18.47;;;13.90;;
13335;SDS011;6737;51.480;11.962;2023-11-21T12:21:36;20.57;;;14.63;;
13335;SDS011;6737;51.480;11.962;2023-11-21T12:24:02;20.97;;;14.03;;
13335;SDS011;6737;51.480;11.962;2023-11-21T12:26:28;19.20;;;14.00;;
13335;SDS011;6737;51.480;11.962;2023-11-21T12:28:54;19.37;;;13.63;;
13335;SDS011;6737;51.480;11.962;2023-11-21T12:31:21;19.83;;;13.17;;
13335;SDS011;6737;51.480;11.962;2023-11-21T12:33:47;17.50;;;12.87;;
13335;SDS011;6737;51.480;11.962;2023-11-21T12:36:13;16.60;;;12.33;;
13335;SDS011;6737;51.480;11.962;2023-11-21T12:38:40;17.83;;;12.73;;
13335;SDS011;6737;51.480;11.962;2023-11-21T12:41:07;17.03;;;12.80;;
13335;SDS011;6737;51.480;11.962;2023-11-21T12:43:35;15.23;;;11.87;;
13335;SDS011;6737;51.480;11.962;2023-11-21T12:46:05;14.23;;;11.27;;
13335;SDS011;6737;51.480;11.962;2023-11-21T12:48:38;15.47;;;12.03;;
13335;SDS011;6737;51.480;11.962;2023-11-21T12:51:07;14.10;;;10.93;;
13335;SDS011;6737;51.480;11.962;2023-11-21T12:53:35;14.13;;;11.27;;
13335;SDS011;6737;51.480;11.962;2023-11-21T12:56:06;14.30;;;11.37;;
13335;SDS011;6737;51.480;11.962;2023-11-21T12:58:39;13.20;;;11.23;;
13335;SDS011;6737;51.480;11.962;2023-11-21T13:01:10;13.27;;;11.13;;
13335;SDS011;6737;51.480;11.962;2023-11-21T13:03:43;14.10;;;11.17;;
13335;SDS011;6737;51.480;11.962;2023-11-21T13:06:14;14.27;;;11.30;;
13335;SDS011;6737;51.480;11.962;2023-11-21T13:08:41;15.67;;;11.30;;
13335;SDS011;6737;51.480;11.962;2023-11-21T13:11:10;14.73;;;10.90;;
13335;SDS011;6737;51.480;11.962;2023-11-21T13:13:39;11.53;;;9.93;;
13335;SDS011;6737;51.480;11.962;2023-11-21T13:16:08;11.63;;;9.63;;
13335;SDS011;6737;51.480;11.962;2023-11-21T13:18:35;11.13;;;9.57;;
13335;SDS011;6737;51.480;11.962;2023-11-21T13:21:03;11.83;;;9.57;;
13335;SDS011;6737;51.480;11.962;2023-11-21T13:23:39;14.80;;;9.87;;
13335;SDS011;6737;51.480;11.962;2023-11-21T13:26:07;10.70;;;8.97;;
13335;SDS011;6737;51.480;11.962;2023-11-21T13:28:34;11.03;;;8.90;;
13335;SDS011;6737;51.480;11.962;2023-11-21T13:31:02;11.33;;;9.17;;
13335;SDS011;6737;51.480;11.962;2023-11-21T13:33:50;10.73;;;8.57;;
13335;SDS011;6737;51.480;11.962;2023-11-21T13:36:21;11.43;;;8.90;;
13335;SDS011;6737;51.480;11.962;2023-11-21T13:38:51;13.50;;;9.37;;
13335;SDS011;6737;51.480;11.962;2023-11-21T13:41:20;12.17;;;9.23;;
13335;SDS011;6737;51.480;11.962;2023-11-21T13:43:53;11.50;;;9.20;;
13335;SDS011;6737;51.480;11.962;2023-11-21T13:46:28;10.50;;;8.57;;
13335;SDS011;6737;51.480;11.962;2023-11-21T13:48:59;9.70;;;7.53;;
13335;SDS011;6737;51.480;11.962;2023-11-21T13:51:25;11.30;;;8.47;;
13335;SDS011;6737;51.480;11.962;2023-11-21T13:54:02;12.97;;;8.83;;
13335;SDS011;6737;51.480;11.962;2023-11-21T13:56:34;11.00;;;8.17;;
13335;SDS011;6737;51.480;11.962;2023-11-21T13:59:00;9.87;;;8.07;;
13335;SDS011;6737;51.480;11.962;2023-11-21T14:01:35;8.90;;;7.87;;
13335;SDS011;6737;51.480;11.962;2023-11-21T14:04:19;10.27;;;8.13;;
13335;SDS011;6737;51.480;11.962;2023-11-21T14:07:00;10.07;;;6.90;;
13335;SDS011;6737;51.480;11.962;2023-11-21T14:09:40;8.73;;;7.43;;
13335;SDS011;6737;51.480;11.962;2023-11-21T14:12:09;8.67;;;6.90;;
13335;SDS011;6737;51.480;11.962;2023-11-21T14:14:37;8.80;;;6.80;;
13335;SDS011;6737;51.480;11.962;2023-11-21T14:17:04;11.30;;;6.90;;
13335;SDS011;6737;51.480;11.962;2023-11-21T14:19:32;8.93;;;7.00;;
13335;SDS011;6737;51.480;11.962;2023-11-21T14:21:59;9.60;;;7.33;;
13335;SDS011;6737;51.480;11.962;2023-11-21T14:24:27;7.77;;;6.40;;
13335;SDS011;6737;51.480;11.962;2023-11-21T14:26:54;7.97;;;6.23;;
13335;SDS011;6737;51.480;11.962;2023-11-21T14:29:20;10.37;;;6.13;;
13335;SDS011;6737;51.480;11.962;2023-11-21T14:31:47;8.47;;;6.53;;
13335;SDS011;6737;51.480;11.962;2023-11-21T14:34:13;6.67;;;5.87;;
13335;SDS011;6737;51.480;11.962;2023-11-21T14:36:40;8.23;;;5.97;;
13335;SDS011;6737;51.480;11.962;2023-11-21T14:39:08;7.10;;;5.70;;
13335;SDS011;6737;51.480;11.962;2023-11-21T14:41:48;7.07;;;6.00;;
13335;SDS011;6737;51.480;11.962;2023-11-21T14:44:14;7.33;;;5.93;;
13335;SDS011;6737;51.480;11.962;2023-11-21T14:46:40;7.10;;;6.37;;
13335;SDS011;6737;51.480;11.962;2023-11-21T14:49:12;7.67;;;6.63;;
13335;SDS011;6737;51.480;11.962;2023-11-21T14:51:46;7.83;;;6.97;;
13335;SDS011;6737;51.480;11.962;2023-11-21T14:54:36;11.23;;;7.73;;